Time;durP1;ratioP1;P1;durP2;ratioP2;P2;SDS_P1;SDS_P2;PMS_P1;PMS_P2;Temp;Humidity;BMP_temperature;BMP_pressure;BME280_temperature;BME280_humidity;BME280_pressure;Samples;Min_cycle;Max_cycle;Signal;HPM_P1;HPM_P2
2023/09/26 00:01:07;;;;;;;0.10;0.10;;;;;;;;;;4790912;29;20051;-88
2023/09/26 00:03:33;;;;;;;0.10;0.10;;;;;;;;;;4790829;29;20099;-87
2023/09/26 00:05:59;;;;;;;0.10;0.10;;;;;;;;;;4790700;29;20042;-87
2023/09/26 00:08:25;;;;;;;0.10;0.10;;;;;;;;;;4805894;29;20047;-88
2023/09/26 00:10:51;;;;;;;0.10;0.10;;;;;;;;;;4805656;29;20043;-87
2023/09/26 00:13:17;;;;;;;0.13;0.13;;;;;;;;;;4805581;29;20043;-86
2023/09/26 00:15:43;;;;;;;0.10;0.10;;;;;;;;;;4805336;29;20047;-87
2023/09/26 00:18:09;;;;;;;0.10;0.10;;;;;;;;;;4805616;29;20047;-85
2023/09/26 00:20:38;;;;;;;0.10;0.10;;;;;;;;;;4805435;29;20500;-87
2023/09/26 00:23:04;;;;;;;0.10;0.10;;;;;;;;;;4806924;29;20050;-86
2023/09/26 00:25:30;;;;;;;0.10;0.10;;;;;;;;;;4790443;29;20500;-87
2023/09/26 00:27:56;;;;;;;0.20;0.20;;;;;;;;;;4805229;29;20070;-87
2023/09/26 00:30:23;;;;;;;0.10;0.10;;;;;;;;;;4805275;29;20062;-86
2023/09/26 00:32:49;;;;;;;0.10;0.10;;;;;;;;;;4805217;29;20388;-87
2023/09/26 00:35:15;;;;;;;0.10;0.10;;;;;;;;;;4789844;29;20046;-86
2023/09/26 00:37:42;;;;;;;0.10;0.10;;;;;;;;;;4790261;29;20038;-86
2023/09/26 00:40:14;;;;;;;0.10;0.10;;;;;;;;;;4805274;29;20051;-87
2023/09/26 00:42:40;;;;;;;0.10;0.10;;;;;;;;;;4791154;29;20050;-86
2023/09/26 00:45:08;;;;;;;0.10;0.10;;;;;;;;;;4790422;29;20047;-86
2023/09/26 00:47:35;;;;;;;0.10;0.10;;;;;;;;;;4804875;29;20057;-86
2023/09/26 00:50:07;;;;;;;0.10;0.10;;;;;;;;;;4790352;29;20400;-87
2023/09/26 00:52:33;;;;;;;0.10;0.10;;;;;;;;;;4790313;29;20488;-88
2023/09/26 00:55:02;;;;;;;0.10;0.10;;;;;;;;;;4789887;29;20130;-88
2023/09/26 00:57:28;;;;;;;0.10;0.10;;;;;;;;;;4790634;29;20073;-88
2023/09/26 00:59:54;;;;;;;0.10;0.10;;;;;;;;;;4775242;29;20043;-88
2023/09/26 01:02:21;;;;;;;0.10;0.10;;;;;;;;;;4789944;29;20051;-87
2023/09/26 01:04:47;;;;;;;0.10;0.10;;;;;;;;;;4804878;29;20449;-88
2023/09/26 01:07:13;;;;;;;0.10;0.10;;;;;;;;;;4774806;29;20103;-87
2023/09/26 01:09:39;;;;;;;0.10;0.10;;;;;;;;;;4775023;29;20042;-88
2023/09/26 01:12:05;;;;;;;0.10;0.10;;;;;;;;;;4789919;29;20046;-88
2023/09/26 01:14:31;;;;;;;0.20;0.20;;;;;;;;;;4789731;29;20469;-88
2023/09/26 01:16:57;;;;;;;0.10;0.10;;;;;;;;;;4789568;29;20047;-87
2023/09/26 01:19:23;;;;;;;0.10;0.10;;;;;;;;;;4789600;29;20400;-88
2023/09/26 01:21:49;;;;;;;0.10;0.10;;;;;;;;;;4789497;29;20385;-88
2023/09/26 01:24:17;;;;;;;0.10;0.10;;;;;;;;;;4789617;29;20078;-87
2023/09/26 01:26:43;;;;;;;0.30;0.30;;;;;;;;;;4804225;29;20538;-87
2023/09/26 01:29:10;;;;;;;0.10;0.10;;;;;;;;;;4789544;29;20057;-88
2023/09/26 01:31:37;;;;;;;0.10;0.10;;;;;;;;;;4804870;29;20115;-87
2023/09/26 01:34:03;;;;;;;0.10;0.10;;;;;;;;;;4804020;29;20055;-88
2023/09/26 01:36:30;;;;;;;0.10;0.10;;;;;;;;;;4789291;29;20074;-87
2023/09/26 01:38:56;;;;;;;0.10;0.10;;;;;;;;;;4774335;29;20049;-88
2023/09/26 01:41:25;;;;;;;0.10;0.10;;;;;;;;;;4789145;29;20118;-86
2023/09/26 01:43:51;;;;;;;0.10;0.10;;;;;;;;;;4774100;29;20227;-86
2023/09/26 01:46:18;;;;;;;0.10;0.10;;;;;;;;;;4788669;29;20051;-87
2023/09/26 01:48:44;;;;;;;0.20;0.20;;;;;;;;;;4789113;29;20050;-86
2023/09/26 01:51:10;;;;;;;0.20;0.20;;;;;;;;;;4789280;29;20099;-87
2023/09/26 01:53:36;;;;;;;0.10;0.10;;;;;;;;;;4803896;29;20049;-87
2023/09/26 01:56:02;;;;;;;0.10;0.10;;;;;;;;;;4789065;29;20046;-87
2023/09/26 01:58:28;;;;;;;0.10;0.10;;;;;;;;;;4788969;29;20042;-86
2023/09/26 02:00:54;;;;;;;0.10;0.10;;;;;;;;;;4803914;29;20103;-87
2023/09/26 02:03:21;;;;;;;0.10;0.10;;;;;;;;;;4789521;29;20053;-86
2023/09/26 02:05:47;;;;;;;0.10;0.10;;;;;;;;;;4803760;29;20057;-86
2023/09/26 02:08:16;;;;;;;0.10;0.10;;;;;;;;;;4803981;29;20050;-86
2023/09/26 02:10:42;;;;;;;0.10;0.10;;;;;;;;;;4803961;29;20055;-87
2023/09/26 02:13:08;;;;;;;0.10;0.10;;;;;;;;;;4803717;29;20511;-87
2023/09/26 02:15:36;;;;;;;0.10;0.10;;;;;;;;;;4789057;29;20447;-87
2023/09/26 02:18:02;;;;;;;0.10;0.10;;;;;;;;;;4790068;29;20051;-88
2023/09/26 02:20:28;;;;;;;0.10;0.10;;;;;;;;;;4803885;29;20046;-87
2023/09/26 02:22:54;;;;;;;0.10;0.10;;;;;;;;;;4774264;29;20054;-88
2023/09/26 02:25:20;;;;;;;0.10;0.10;;;;;;;;;;4773992;29;20053;-87
2023/09/26 02:27:46;;;;;;;0.10;0.10;;;;;;;;;;4788580;29;20123;-87
2023/09/26 02:30:14;;;;;;;0.10;0.10;;;;;;;;;;4788875;29;20057;-88
2023/09/26 02:32:42;;;;;;;0.10;0.10;;;;;;;;;;4773907;29;20062;-88
2023/09/26 02:35:09;;;;;;;0.20;0.20;;;;;;;;;;4773776;29;20047;-88
2023/09/26 02:37:35;;;;;;;0.10;0.10;;;;;;;;;;4788761;29;20050;-87
2023/09/26 02:40:05;;;;;;;0.10;0.10;;;;;;;;;;4773824;29;20067;-88
2023/09/26 02:42:31;;;;;;;0.10;0.10;;;;;;;;;;4774174;29;20183;-88
2023/09/26 02:44:57;;;;;;;0.10;0.10;;;;;;;;;;4773711;29;20089;-88
2023/09/26 02:47:23;;;;;;;0.10;0.10;;;;;;;;;;4788568;29;20042;-88
2023/09/26 02:49:49;;;;;;;0.10;0.10;;;;;;;;;;4773986;29;20057;-88
2023/09/26 02:52:14;;;;;;;0.10;0.10;;;;;;;;;;4788659;29;20181;-88
2023/09/26 02:54:40;;;;;;;0.10;0.10;;;;;;;;;;4803198;29;20046;-88
2023/09/26 02:57:06;;;;;;;0.10;0.10;;;;;;;;;;4789642;29;20046;-88
2023/09/26 02:59:32;;;;;;;0.10;0.10;;;;;;;;;;4777331;29;20047;-88
2023/09/26 03:01:58;;;;;;;0.10;0.10;;;;;;;;;;4777063;29;20564;-88
2023/09/26 03:04:24;;;;;;;0.10;0.10;;;;;;;;;;4791731;29;20435;-88
2023/09/26 03:06:50;;;;;;;0.10;0.10;;;;;;;;;;4791837;29;20050;-88
2023/09/26 03:09:16;;;;;;;0.10;0.10;;;;;;;;;;4791790;29;20089;-88
2023/09/26 03:11:43;;;;;;;0.20;0.20;;;;;;;;;;4791967;29;20545;-88
2023/09/26 03:14:09;;;;;;;0.10;0.10;;;;;;;;;;4791645;29;20051;-89
2023/09/26 03:16:35;;;;;;;0.10;0.10;;;;;;;;;;4776823;29;20133;-88
2023/09/26 03:19:02;;;;;;;0.10;0.10;;;;;;;;;;4806539;29;20074;-87
2023/09/26 03:21:28;;;;;;;0.10;0.10;;;;;;;;;;4806484;29;20129;-87
2023/09/26 03:23:54;;;;;;;0.10;0.10;;;;;;;;;;4791365;29;20078;-88
2023/09/26 03:26:20;;;;;;;0.10;0.10;;;;;;;;;;4791371;29;20066;-86
2023/09/26 03:28:46;;;;;;;0.10;0.10;;;;;;;;;;4806455;29;20526;-84
2023/09/26 03:31:12;;;;;;;0.10;0.10;;;;;;;;;;4806333;29;20139;-88
2023/09/26 03:33:38;;;;;;;0.10;0.10;;;;;;;;;;4791513;29;20404;-88
2023/09/26 03:36:04;;;;;;;0.20;0.20;;;;;;;;;;4776345;29;20038;-88
2023/09/26 03:38:30;;;;;;;0.10;0.10;;;;;;;;;;4776282;29;20078;-88
2023/09/26 03:40:57;;;;;;;0.10;0.10;;;;;;;;;;4791262;29;20051;-88
2023/09/26 03:43:24;;;;;;;0.10;0.10;;;;;;;;;;4776485;29;20042;-87
2023/09/26 03:45:50;;;;;;;0.10;0.10;;;;;;;;;;4791192;29;20117;-87
2023/09/26 03:48:16;;;;;;;0.10;0.10;;;;;;;;;;4776378;29;20078;-87
2023/09/26 03:50:42;;;;;;;0.10;0.10;;;;;;;;;;4805908;29;20078;-88
2023/09/26 03:53:08;;;;;;;0.10;0.10;;;;;;;;;;4776153;29;20047;-88
2023/09/26 03:55:34;;;;;;;0.10;0.10;;;;;;;;;;4805812;29;20130;-87
2023/09/26 03:58:00;;;;;;;0.10;0.10;;;;;;;;;;4790932;29;20149;-88
2023/09/26 04:00:27;;;;;;;0.10;0.10;;;;;;;;;;4790953;29;20046;-88
2023/09/26 04:02:56;;;;;;;0.20;0.20;;;;;;;;;;4790937;29;20082;-87
2023/09/26 04:05:22;;;;;;;0.10;0.10;;;;;;;;;;4776378;29;20051;-87
2023/09/26 04:07:48;;;;;;;0.10;0.10;;;;;;;;;;4790859;29;20518;-87
2023/09/26 04:10:14;;;;;;;0.10;0.10;;;;;;;;;;4790272;29;20047;-87
2023/09/26 04:12:40;;;;;;;0.10;0.10;;;;;;;;;;4790884;29;20050;-87
2023/09/26 04:15:07;;;;;;;0.10;0.10;;;;;;;;;;4805481;29;20570;-88
2023/09/26 04:17:33;;;;;;;0.10;0.10;;;;;;;;;;4790577;29;20100;-87
2023/09/26 04:20:00;;;;;;;0.20;0.20;;;;;;;;;;4805395;29;20046;-88
2023/09/26 04:22:27;;;;;;;0.10;0.10;;;;;;;;;;4790524;29;20505;-88
2023/09/26 04:24:53;;;;;;;0.10;0.10;;;;;;;;;;4790568;29;20104;-87
2023/09/26 04:27:19;;;;;;;0.10;0.10;;;;;;;;;;4790412;29;20145;-88
2023/09/26 04:29:45;;;;;;;0.10;0.10;;;;;;;;;;4790555;29;20129;-87
2023/09/26 04:32:11;;;;;;;0.10;0.10;;;;;;;;;;4775443;29;20049;-88
2023/09/26 04:34:37;;;;;;;0.10;0.10;;;;;;;;;;4790179;29;20043;-87
2023/09/26 04:37:03;;;;;;;0.10;0.10;;;;;;;;;;4805172;29;20053;-88
2023/09/26 04:39:29;;;;;;;0.10;0.10;;;;;;;;;;4790605;29;20045;-87
2023/09/26 04:41:55;;;;;;;0.10;0.10;;;;;;;;;;4805316;29;20410;-87
2023/09/26 04:44:21;;;;;;;0.10;0.10;;;;;;;;;;4775311;29;20123;-87
2023/09/26 04:46:47;;;;;;;0.10;0.10;;;;;;;;;;4790390;29;20101;-87
2023/09/26 04:49:13;;;;;;;0.10;0.10;;;;;;;;;;4790046;29;20051;-87
2023/09/26 04:51:39;;;;;;;0.10;0.10;;;;;;;;;;4790050;29;20502;-87
2023/09/26 04:54:05;;;;;;;0.10;0.10;;;;;;;;;;4804770;29;20046;-88
2023/09/26 04:56:31;;;;;;;0.10;0.10;;;;;;;;;;4790041;29;20046;-88
2023/09/26 04:58:57;;;;;;;0.10;0.10;;;;;;;;;;4805068;29;20038;-88
2023/09/26 05:01:25;;;;;;;0.10;0.10;;;;;;;;;;4790257;29;20130;-87
2023/09/26 05:03:51;;;;;;;0.10;0.10;;;;;;;;;;4789980;29;20049;-88
2023/09/26 05:06:17;;;;;;;0.10;0.10;;;;;;;;;;4804588;29;20039;-87
2023/09/26 05:08:44;;;;;;;0.10;0.10;;;;;;;;;;4804661;29;20091;-87
2023/09/26 05:11:14;;;;;;;0.10;0.10;;;;;;;;;;4774831;29;20057;-87
2023/09/26 05:13:40;;;;;;;0.10;0.10;;;;;;;;;;4789596;29;20173;-87
2023/09/26 05:16:09;;;;;;;0.10;0.10;;;;;;;;;;4804452;29;20653;-88
2023/09/26 05:18:36;;;;;;;0.10;0.10;;;;;;;;;;4804277;29;20080;-87
2023/09/26 05:21:05;;;;;;;0.20;0.20;;;;;;;;;;4788753;29;20074;-87
2023/09/26 05:23:32;;;;;;;0.20;0.20;;;;;;;;;;4774427;29;20038;-88
2023/09/26 05:26:07;;;;;;;0.10;0.10;;;;;;;;;;4774271;29;20519;-87
2023/09/26 05:28:33;;;;;;;0.10;0.10;;;;;;;;;;4774505;29;20484;-88
2023/09/26 05:30:59;;;;;;;0.10;0.10;;;;;;;;;;4789552;29;20214;-88
2023/09/26 05:33:25;;;;;;;0.10;0.10;;;;;;;;;;4789597;29;20492;-88
2023/09/26 05:35:53;;;;;;;0.10;0.10;;;;;;;;;;4789090;29;20522;-88
2023/09/26 05:38:19;;;;;;;0.10;0.10;;;;;;;;;;4789539;29;20089;-87
2023/09/26 05:40:45;;;;;;;0.10;0.10;;;;;;;;;;4789291;29;20506;-88
2023/09/26 05:43:11;;;;;;;0.10;0.10;;;;;;;;;;4789221;29;20559;-87
2023/09/26 05:45:37;;;;;;;0.10;0.10;;;;;;;;;;4789061;29;20058;-87
2023/09/26 05:48:04;;;;;;;0.10;0.10;;;;;;;;;;4804268;29;20046;-88
2023/09/26 05:50:30;;;;;;;0.10;0.10;;;;;;;;;;4774250;29;20099;-88
2023/09/26 05:52:56;;;;;;;0.10;0.10;;;;;;;;;;4774441;29;20050;-86
2023/09/26 05:55:22;;;;;;;0.10;0.10;;;;;;;;;;4803870;29;20418;-86
2023/09/26 05:57:48;;;;;;;0.10;0.10;;;;;;;;;;4804210;29;20508;-87
2023/09/26 06:00:15;;;;;;;0.20;0.20;;;;;;;;;;4773992;29;20054;-87
2023/09/26 06:02:41;;;;;;;0.10;0.10;;;;;;;;;;4803987;29;20484;-87
2023/09/26 06:05:08;;;;;;;0.10;0.10;;;;;;;;;;4789034;29;20046;-87
2023/09/26 06:07:33;;;;;;;0.10;0.10;;;;;;;;;;4774162;29;20050;-87
2023/09/26 06:09:59;;;;;;;0.10;0.10;;;;;;;;;;4789178;29;20046;-85
2023/09/26 06:12:25;;;;;;;0.10;0.10;;;;;;;;;;4803944;29;20082;-85
2023/09/26 06:14:51;;;;;;;0.10;0.10;;;;;;;;;;4788669;29;20050;-86
2023/09/26 06:17:17;;;;;;;0.10;0.10;;;;;;;;;;4789143;29;20086;-88
2023/09/26 06:19:47;;;;;;;0.10;0.10;;;;;;;;;;4773932;29;20506;-86
2023/09/26 06:22:16;;;;;;;0.10;0.10;;;;;;;;;;4789013;29;20138;-86
2023/09/26 06:24:42;;;;;;;0.10;0.10;;;;;;;;;;4788839;29;20053;-89
2023/09/26 06:27:08;;;;;;;0.10;0.10;;;;;;;;;;4788631;29;20577;-88
2023/09/26 06:29:38;;;;;;;0.10;0.10;;;;;;;;;;4803948;29;20054;-88
2023/09/26 06:32:04;;;;;;;0.10;0.10;;;;;;;;;;4790145;29;20483;-87
2023/09/26 06:34:31;;;;;;;0.10;0.10;;;;;;;;;;4807245;29;20138;-87
2023/09/26 06:36:57;;;;;;;0.10;0.10;;;;;;;;;;4777980;29;20471;-87
2023/09/26 06:39:24;;;;;;;0.10;0.10;;;;;;;;;;4807488;29;20134;-86
2023/09/26 06:41:50;;;;;;;0.10;0.10;;;;;;;;;;4777315;29;20035;-88
2023/09/26 06:44:16;;;;;;;0.10;0.10;;;;;;;;;;4807020;29;20053;-87
2023/09/26 06:46:42;;;;;;;0.10;0.10;;;;;;;;;;4807095;29;20125;-88
2023/09/26 06:49:08;;;;;;;0.10;0.10;;;;;;;;;;4777202;29;20510;-88
2023/09/26 06:51:34;;;;;;;0.10;0.10;;;;;;;;;;4792483;29;20047;-88
2023/09/26 06:54:00;;;;;;;0.10;0.10;;;;;;;;;;4792110;29;20072;-87
2023/09/26 06:56:26;;;;;;;0.10;0.10;;;;;;;;;;4807227;29;20074;-86
2023/09/26 06:58:52;;;;;;;0.10;0.10;;;;;;;;;;4791953;29;20483;-85
2023/09/26 07:01:18;;;;;;;0.10;0.10;;;;;;;;;;4806840;29;20504;-88
2023/09/26 07:03:45;;;;;;;0.10;0.10;;;;;;;;;;4792085;29;20503;-91
2023/09/26 07:06:11;;;;;;;0.10;0.10;;;;;;;;;;4776954;29;20131;-89
2023/09/26 07:08:41;;;;;;;0.10;0.10;;;;;;;;;;4791702;29;20069;-87
2023/09/26 07:11:08;;;;;;;0.10;0.10;;;;;;;;;;4777153;29;20057;-89
2023/09/26 07:13:37;;;;;;;0.10;0.10;;;;;;;;;;4791924;29;20055;-88
2023/09/26 07:16:04;;;;;;;0.10;0.10;;;;;;;;;;4777040;29;20039;-87
2023/09/26 07:18:34;;;;;;;0.10;0.10;;;;;;;;;;4791789;29;20047;-88
2023/09/26 07:21:04;;;;;;;0.10;0.10;;;;;;;;;;4792193;29;20107;-88
2023/09/26 07:23:29;;;;;;;0.10;0.10;;;;;;;;;;4806611;29;20042;-88
2023/09/26 07:26:04;;;;;;;0.10;0.10;;;;;;;;;;4791275;29;20516;-88
2023/09/26 07:28:30;;;;;;;0.10;0.10;;;;;;;;;;4806590;29;20070;-88
2023/09/26 07:30:56;;;;;;;0.10;0.10;;;;;;;;;;4791491;29;20463;-88
2023/09/26 07:33:22;;;;;;;0.10;0.10;;;;;;;;;;4776547;29;20133;-89
2023/09/26 07:35:51;;;;;;;0.20;0.20;;;;;;;;;;4791162;29;20043;-88
2023/09/26 07:38:17;;;;;;;0.10;0.10;;;;;;;;;;4776522;29;20488;-88
2023/09/26 07:40:43;;;;;;;0.10;0.10;;;;;;;;;;4791399;29;20046;-89
2023/09/26 07:43:09;;;;;;;0.10;0.10;;;;;;;;;;4790582;29;20047;-88
2023/09/26 07:45:39;;;;;;;0.10;0.10;;;;;;;;;;4805938;29;20051;-88
2023/09/26 07:48:05;;;;;;;0.10;0.10;;;;;;;;;;4791107;29;20054;-88
2023/09/26 07:50:31;;;;;;;0.10;0.10;;;;;;;;;;4791235;29;20053;-88
2023/09/26 07:52:57;;;;;;;0.10;0.10;;;;;;;;;;4776060;29;20054;-88
2023/09/26 07:55:24;;;;;;;0.10;0.10;;;;;;;;;;4805863;29;20047;-88
2023/09/26 07:57:50;;;;;;;0.20;0.20;;;;;;;;;;4805746;29;20099;-89
2023/09/26 08:00:16;;;;;;;0.40;0.40;;;;;;;;;;4790936;29;20421;-88
2023/09/26 08:02:42;;;;;;;0.10;0.10;;;;;;;;;;4790947;29;20559;-89
2023/09/26 08:05:08;;;;;;;0.10;0.10;;;;;;;;;;4775807;29;20138;-88
2023/09/26 08:07:34;;;;;;;0.52;0.52;;;;;;;;;;4790921;29;20129;-88
2023/09/26 08:10:00;;;;;;;0.10;0.10;;;;;;;;;;4790804;29;20129;-88
2023/09/26 08:12:30;;;;;;;0.25;0.25;;;;;;;;;;4790829;29;20051;-89
2023/09/26 08:14:56;;;;;;;0.20;0.20;;;;;;;;;;4775844;29;20050;-88
2023/09/26 08:17:22;;;;;;;0.10;0.10;;;;;;;;;;4790669;29;20487;-88
2023/09/26 08:19:48;;;;;;;0.10;0.10;;;;;;;;;;4775801;29;20043;-93
2023/09/26 08:22:14;;;;;;;0.13;0.13;;;;;;;;;;4790908;29;20328;-91
2023/09/26 08:24:40;;;;;;;0.10;0.10;;;;;;;;;;4775599;29;20043;-90
2023/09/26 08:27:06;;;;;;;0.10;0.10;;;;;;;;;;4790996;29;20070;-90
2023/09/26 08:29:32;;;;;;;0.10;0.10;;;;;;;;;;4805739;29;20051;-89
2023/09/26 08:31:58;;;;;;;0.10;0.10;;;;;;;;;;4790443;29;20043;-90
2023/09/26 08:34:24;;;;;;;0.20;0.20;;;;;;;;;;4775630;29;20082;-91
2023/09/26 08:36:52;;;;;;;0.10;0.10;;;;;;;;;;4775791;29;20095;-90
2023/09/26 08:39:18;;;;;;;0.10;0.10;;;;;;;;;;4791293;29;20051;-92
2023/09/26 08:41:47;;;;;;;0.10;0.10;;;;;;;;;;4791282;29;20208;-93
2023/09/26 08:44:13;;;;;;;0.10;0.10;;;;;;;;;;4776381;29;20051;-92
2023/09/26 08:46:40;;;;;;;0.15;0.15;;;;;;;;;;4775777;29;20082;-93
2023/09/26 08:49:06;;;;;;;0.10;0.10;;;;;;;;;;4791348;29;20051;-92
2023/09/26 08:51:33;;;;;;;0.10;0.10;;;;;;;;;;4775722;29;20050;-92
2023/09/26 08:53:59;;;;;;;0.10;0.10;;;;;;;;;;4775759;29;20046;-91
2023/09/26 08:56:25;;;;;;;0.10;0.10;;;;;;;;;;4790208;29;20043;-92
2023/09/26 08:58:51;;;;;;;0.10;0.10;;;;;;;;;;4775619;29;20053;-91
2023/09/26 09:01:18;;;;;;;0.10;0.10;;;;;;;;;;4790229;29;20500;-90
2023/09/26 09:03:44;;;;;;;0.10;0.10;;;;;;;;;;4775538;29;20053;-91
2023/09/26 09:06:10;;;;;;;0.10;0.10;;;;;;;;;;4775412;29;20086;-91
2023/09/26 09:08:36;;;;;;;0.15;0.15;;;;;;;;;;4790730;29;20096;-92
2023/09/26 09:11:02;;;;;;;0.10;0.10;;;;;;;;;;4775703;29;20424;-90
2023/09/26 09:13:32;;;;;;;0.20;0.20;;;;;;;;;;4790058;29;20211;-89
2023/09/26 09:16:11;;;;;;;0.13;0.13;;;;;;;;;;4775223;29;20047;-93
2023/09/26 09:18:37;;;;;;;0.10;0.10;;;;;;;;;;4775524;29;20407;-90
2023/09/26 09:21:33;;;;;;;0.10;0.10;;;;;;;;;;4775143;29;20043;-89
2023/09/26 09:24:02;;;;;;;0.10;0.10;;;;;;;;;;4813984;29;20131;-88
2023/09/26 09:26:30;;;;;;;0.10;0.10;;;;;;;;;;4790624;29;20046;-89
2023/09/26 09:28:59;;;;;;;0.10;0.10;;;;;;;;;;4792808;29;20105;-88
2023/09/26 09:31:24;;;;;;;0.10;0.10;;;;;;;;;;4822494;29;20046;-89
2023/09/26 09:33:56;;;;;;;0.20;0.20;;;;;;;;;;4807507;29;20055;-91
2023/09/26 09:36:22;;;;;;;0.20;0.20;;;;;;;;;;4804656;29;20043;-90
2023/09/26 09:38:48;;;;;;;0.20;0.20;;;;;;;;;;4774477;29;20404;-90
2023/09/26 09:41:13;;;;;;;0.10;0.10;;;;;;;;;;4782197;29;20057;-89
2023/09/26 09:43:39;;;;;;;0.10;0.10;;;;;;;;;;4807542;29;20042;-89
2023/09/26 09:46:08;;;;;;;0.10;0.10;;;;;;;;;;4807310;29;20053;-89
2023/09/26 09:48:43;;;;;;;0.20;0.20;;;;;;;;;;4808360;29;20046;-88
2023/09/26 09:51:11;;;;;;;0.10;0.10;;;;;;;;;;4836881;29;20046;-88
2023/09/26 09:53:38;;;;;;;0.10;0.10;;;;;;;;;;4809678;29;20049;-89
2023/09/26 09:56:07;;;;;;;0.10;0.10;;;;;;;;;;4809986;29;20042;-88
2023/09/26 09:58:33;;;;;;;0.10;0.10;;;;;;;;;;4810744;29;20046;-88
2023/09/26 10:01:00;;;;;;;0.10;0.10;;;;;;;;;;4824638;29;20038;-87
2023/09/26 10:03:26;;;;;;;0.25;0.20;;;;;;;;;;4794549;29;20046;-88
2023/09/26 10:05:52;;;;;;;0.10;0.10;;;;;;;;;;4793591;29;20080;-87
2023/09/26 10:08:18;;;;;;;0.10;0.10;;;;;;;;;;4812050;29;20098;-87
2023/09/26 10:10:44;;;;;;;0.10;0.10;;;;;;;;;;4827325;29;20187;-87
2023/09/26 10:13:10;;;;;;;0.10;0.10;;;;;;;;;;4827905;29;20067;-88
2023/09/26 10:15:55;;;;;;;0.10;0.10;;;;;;;;;;4829254;29;20043;-90
2023/09/26 10:18:21;;;;;;;0.20;0.20;;;;;;;;;;4844472;29;20034;-89
2023/09/26 10:20:47;;;;;;;0.15;0.15;;;;;;;;;;4824148;29;20062;-89
2023/09/26 10:23:13;;;;;;;0.10;0.10;;;;;;;;;;4816080;29;20078;-90
2023/09/26 10:25:39;;;;;;;0.10;0.10;;;;;;;;;;4810374;29;20057;-89
2023/09/26 10:28:07;;;;;;;0.10;0.10;;;;;;;;;;4807374;29;20372;-90
2023/09/26 10:30:42;;;;;;;0.10;0.10;;;;;;;;;;4807368;29;20050;-86
2023/09/26 10:33:08;;;;;;;0.13;0.13;;;;;;;;;;4807129;29;20054;-90
2023/09/26 10:35:35;;;;;;;0.20;0.20;;;;;;;;;;4806829;29;20562;-90
2023/09/26 10:38:08;;;;;;;0.17;0.17;;;;;;;;;;4807023;29;20462;-89
2023/09/26 10:40:34;;;;;;;0.10;0.10;;;;;;;;;;4806778;29;20046;-89
2023/09/26 10:43:00;;;;;;;0.20;0.20;;;;;;;;;;4807682;29;20053;-92
2023/09/26 10:45:26;;;;;;;0.20;0.20;;;;;;;;;;4806934;29;20480;-90
2023/09/26 10:47:52;;;;;;;0.20;0.20;;;;;;;;;;4806771;29;20533;-88
2023/09/26 10:50:20;;;;;;;0.10;0.10;;;;;;;;;;4822219;29;20046;-88
2023/09/26 10:52:46;;;;;;;0.10;0.10;;;;;;;;;;4807100;29;20058;-91
2023/09/26 10:55:22;;;;;;;0.13;0.13;;;;;;;;;;4806866;29;20564;-87
2023/09/26 10:57:50;;;;;;;0.10;0.10;;;;;;;;;;4806866;29;20049;-89
2023/09/26 11:00:17;;;;;;;0.20;0.20;;;;;;;;;;4807137;29;20129;-88
2023/09/26 11:02:43;;;;;;;0.10;0.10;;;;;;;;;;4806918;29;20494;-89
2023/09/26 11:05:10;;;;;;;0.10;0.10;;;;;;;;;;4806870;29;20399;-90
2023/09/26 11:07:37;;;;;;;0.10;0.10;;;;;;;;;;4806952;29;20042;-89
2023/09/26 11:10:06;;;;;;;0.10;0.10;;;;;;;;;;4806710;29;20483;-89
2023/09/26 11:12:32;;;;;;;0.10;0.10;;;;;;;;;;4807359;29;20118;-89
2023/09/26 11:14:59;;;;;;;0.20;0.20;;;;;;;;;;4806573;29;20491;-89
2023/09/26 11:17:29;;;;;;;0.13;0.13;;;;;;;;;;4806645;29;20038;-89
2023/09/26 11:19:58;;;;;;;0.15;0.15;;;;;;;;;;4809177;29;20125;-88
2023/09/26 11:22:25;;;;;;;0.10;0.10;;;;;;;;;;4810252;29;20073;-88
2023/09/26 11:25:03;;;;;;;0.20;0.20;;;;;;;;;;4810066;29;20451;-88
2023/09/26 11:27:30;;;;;;;0.10;0.10;;;;;;;;;;4809722;29;20594;-88
2023/09/26 11:29:56;;;;;;;0.10;0.10;;;;;;;;;;4809735;29;20069;-90
2023/09/26 11:32:22;;;;;;;0.10;0.10;;;;;;;;;;4809958;29;20054;-91
2023/09/26 11:34:51;;;;;;;0.20;0.20;;;;;;;;;;4809892;29;20042;-94
2023/09/26 11:37:17;;;;;;;0.10;0.10;;;;;;;;;;4809743;29;20574;-91
2023/09/26 11:39:49;;;;;;;0.15;0.15;;;;;;;;;;4810042;29;20038;-91
2023/09/26 11:42:17;;;;;;;0.10;0.10;;;;;;;;;;4810374;29;20053;-90
2023/09/26 11:44:56;;;;;;;0.10;0.10;;;;;;;;;;4809621;29;20120;-90
2023/09/26 11:47:22;;;;;;;0.10;0.10;;;;;;;;;;4809876;29;20058;-91
2023/09/26 11:49:50;;;;;;;0.10;0.10;;;;;;;;;;4809481;29;20405;-87
2023/09/26 11:52:17;;;;;;;0.10;0.10;;;;;;;;;;4809476;29;20046;-87
2023/09/26 11:54:43;;;;;;;0.10;0.10;;;;;;;;;;4824231;29;20051;-87
2023/09/26 11:57:11;;;;;;;0.20;0.20;;;;;;;;;;4809270;29;20042;-87
2023/09/26 11:59:39;;;;;;;0.10;0.10;;;;;;;;;;4809506;29;20054;-94
2023/09/26 12:02:05;;;;;;;0.10;0.10;;;;;;;;;;4810121;29;20038;-92
2023/09/26 12:04:32;;;;;;;0.10;0.10;;;;;;;;;;4809232;29;20046;-89
2023/09/26 12:06:59;;;;;;;0.10;0.10;;;;;;;;;;4809295;29;20491;-87
2023/09/26 12:09:27;;;;;;;0.10;0.10;;;;;;;;;;4809036;29;20491;-89
2023/09/26 12:11:53;;;;;;;0.10;0.10;;;;;;;;;;4809558;29;20399;-89
2023/09/26 12:14:20;;;;;;;0.10;0.10;;;;;;;;;;4808780;29;20052;-89
2023/09/26 12:16:50;;;;;;;0.10;0.10;;;;;;;;;;4809070;29;20046;-89
2023/09/26 12:19:16;;;;;;;0.10;0.10;;;;;;;;;;4809370;29;20064;-88
2023/09/26 12:21:42;;;;;;;0.10;0.10;;;;;;;;;;4808949;29;20045;-89
2023/09/26 12:24:08;;;;;;;0.10;0.10;;;;;;;;;;4808618;29;20129;-89
2023/09/26 12:26:35;;;;;;;0.20;0.20;;;;;;;;;;4808700;29;20138;-88
2023/09/26 12:29:03;;;;;;;0.10;0.10;;;;;;;;;;4808823;29;20072;-89
2023/09/26 12:31:29;;;;;;;0.10;0.10;;;;;;;;;;4808305;29;20102;-88
2023/09/26 12:33:54;;;;;;;0.10;0.10;;;;;;;;;;4808400;29;20046;-89
2023/09/26 12:36:20;;;;;;;0.10;0.10;;;;;;;;;;4808446;29;20049;-89
2023/09/26 12:38:46;;;;;;;0.10;0.10;;;;;;;;;;4809072;29;20045;-90
2023/09/26 12:41:12;;;;;;;0.10;0.10;;;;;;;;;;4808964;29;20038;-90
2023/09/26 12:43:40;;;;;;;0.10;0.10;;;;;;;;;;4808512;29;20052;-91
2023/09/26 12:46:06;;;;;;;0.20;0.20;;;;;;;;;;4808737;29;20118;-90
2023/09/26 12:48:32;;;;;;;0.10;0.10;;;;;;;;;;4808293;29;20148;-87
2023/09/26 12:50:58;;;;;;;0.20;0.20;;;;;;;;;;4823598;29;20057;-90
2023/09/26 12:53:24;;;;;;;0.10;0.10;;;;;;;;;;4808323;29;20050;-89
2023/09/26 12:55:51;;;;;;;0.10;0.10;;;;;;;;;;4808262;29;20133;-89
2023/09/26 12:58:18;;;;;;;0.20;0.20;;;;;;;;;;4823394;29;20042;-90
2023/09/26 13:00:44;;;;;;;0.10;0.10;;;;;;;;;;4808510;29;20057;-90
2023/09/26 13:03:10;;;;;;;0.10;0.10;;;;;;;;;;4808072;29;20117;-90
2023/09/26 13:05:36;;;;;;;0.10;0.10;;;;;;;;;;4808137;29;20102;-89
2023/09/26 13:08:02;;;;;;;0.10;0.10;;;;;;;;;;4808423;29;20047;-93
2023/09/26 13:10:28;;;;;;;0.20;0.20;;;;;;;;;;4808074;29;20052;-89
2023/09/26 13:12:54;;;;;;;0.10;0.10;;;;;;;;;;4807992;29;20046;-89
2023/09/26 13:15:20;;;;;;;0.20;0.20;;;;;;;;;;4807661;29;20039;-89
2023/09/26 13:17:46;;;;;;;0.10;0.10;;;;;;;;;;4807960;29;20043;-90
2023/09/26 13:20:13;;;;;;;0.20;0.20;;;;;;;;;;4823251;29;20133;-90
2023/09/26 13:22:38;;;;;;;0.20;0.20;;;;;;;;;;4808054;29;20478;-91
2023/09/26 13:25:05;;;;;;;0.20;0.20;;;;;;;;;;4807668;29;20491;-90
2023/09/26 13:27:31;;;;;;;0.20;0.20;;;;;;;;;;4807609;29;20491;-90
2023/09/26 13:29:57;;;;;;;0.10;0.10;;;;;;;;;;4807598;29;20078;-90
2023/09/26 13:32:24;;;;;;;0.20;0.20;;;;;;;;;;4807771;29;20325;-91
2023/09/26 13:34:50;;;;;;;0.20;0.20;;;;;;;;;;4807933;29;20042;-91
2023/09/26 13:37:16;;;;;;;0.20;0.20;;;;;;;;;;4808230;29;20043;-91
2023/09/26 13:39:42;;;;;;;0.20;0.20;;;;;;;;;;4808053;29;20042;-90
2023/09/26 13:42:08;;;;;;;0.10;0.10;;;;;;;;;;4806682;29;20039;-92
2023/09/26 13:44:34;;;;;;;0.10;0.10;;;;;;;;;;4807745;29;20057;-90
2023/09/26 13:47:00;;;;;;;0.20;0.20;;;;;;;;;;4807653;29;20464;-90
2023/09/26 13:49:26;;;;;;;0.10;0.10;;;;;;;;;;4807535;29;20046;-91
2023/09/26 13:51:55;;;;;;;0.10;0.10;;;;;;;;;;4807482;29;20078;-92
2023/09/26 13:54:21;;;;;;;0.10;0.10;;;;;;;;;;4808346;29;20136;-92
2023/09/26 13:56:47;;;;;;;0.20;0.20;;;;;;;;;;4807244;29;20481;-92
2023/09/26 13:59:13;;;;;;;0.20;0.20;;;;;;;;;;4807536;29;20080;-91
2023/09/26 14:01:39;;;;;;;0.20;0.20;;;;;;;;;;4807331;29;20099;-91
2023/09/26 14:04:05;;;;;;;0.10;0.10;;;;;;;;;;4807273;29;20129;-91
2023/09/26 14:06:31;;;;;;;0.10;0.10;;;;;;;;;;4807430;29;20133;-91
2023/09/26 14:08:57;;;;;;;0.10;0.10;;;;;;;;;;4807378;29;20146;-91
2023/09/26 14:11:23;;;;;;;0.20;0.20;;;;;;;;;;4807135;29;20049;-90
2023/09/26 14:13:49;;;;;;;0.20;0.20;;;;;;;;;;4807363;29;20049;-91
2023/09/26 14:16:15;;;;;;;0.20;0.20;;;;;;;;;;4806911;29;20085;-90
2023/09/26 14:18:44;;;;;;;0.10;0.10;;;;;;;;;;4807218;29;20115;-91
2023/09/26 14:21:14;;;;;;;0.10;0.10;;;;;;;;;;4807342;29;20403;-90
2023/09/26 14:23:43;;;;;;;0.20;0.20;;;;;;;;;;4807801;29;20043;-91
2023/09/26 14:26:09;;;;;;;0.10;0.10;;;;;;;;;;4807386;29;20063;-91
2023/09/26 14:28:36;;;;;;;0.10;0.10;;;;;;;;;;4806890;29;20110;-90
2023/09/26 14:31:02;;;;;;;0.10;0.10;;;;;;;;;;4807183;29;20132;-91
2023/09/26 14:33:28;;;;;;;0.20;0.20;;;;;;;;;;4807264;29;20607;-91
2023/09/26 14:35:54;;;;;;;0.20;0.20;;;;;;;;;;4807367;29;20050;-87
2023/09/26 14:38:20;;;;;;;0.17;0.17;;;;;;;;;;4806940;29;20050;-88
2023/09/26 14:40:46;;;;;;;0.20;0.20;;;;;;;;;;4821992;29;20426;-87